Time;durP1;ratioP1;P1;durP2;ratioP2;P2;SDS_P1;SDS_P2;PMS_P1;PMS_P2;Temp;Humidity;BMP_temperature;BMP_pressure;BME280_temperature;BME280_humidity;BME280_pressure;Samples;Min_cycle;Max_cycle;Signal;HPM_P1;HPM_P2
2024/04/16 00:01:28;;;;;;;11.18;3.65;;;;;;;8.26;94.64;100107.56;5506081;25;20012;-70
2024/04/16 00:04:16;;;;;;;10.82;3.45;;;;;;;8.25;94.33;100106.75;5537868;25;20000;-70
2024/04/16 00:07:04;;;;;;;16.23;3.50;;;;;;;8.20;95.00;100114.91;5534026;25;20004;-71
2024/04/16 00:09:52;;;;;;;13.00;3.58;;;;;;;8.24;95.36;100107.03;5545417;25;20012;-69
2024/04/16 00:12:40;;;;;;;9.63;3.08;;;;;;;8.23;95.53;100103.50;5500311;26;20081;-71
2024/04/16 00:15:47;;;;;;;9.73;3.13;;;;;;;8.24;95.30;100099.69;5506096;26;20009;-69
2024/04/16 00:18:35;;;;;;;10.68;3.00;;;;;;;8.25;94.94;100097.78;5531431;25;19997;-70
2024/04/16 00:21:24;;;;;;;13.07;3.30;;;;;;;8.29;94.72;100093.44;5511184;25;20012;-70
2024/04/16 00:24:12;;;;;;;12.57;3.47;;;;;;;8.30;93.64;100093.19;5542593;25;20011;-70
2024/04/16 00:27:01;;;;;;;10.07;2.80;;;;;;;8.29;93.47;100096.16;5511535;25;20296;-70
2024/04/16 00:29:49;;;;;;;11.45;2.97;;;;;;;8.32;93.28;100084.75;5544604;25;19997;-70
2024/04/16 00:32:37;;;;;;;10.95;2.72;;;;;;;8.32;93.58;100080.19;5533270;26;19997;-70
2024/04/16 00:35:26;;;;;;;9.13;3.40;;;;;;;8.31;93.08;100072.28;5452006;26;20001;-70
2024/04/16 00:38:14;;;;;;;10.82;2.88;;;;;;;8.28;92.29;100070.13;5505855;25;20073;-69
2024/04/16 00:41:02;;;;;;;8.57;2.80;;;;;;;8.22;93.40;100065.78;5465342;25;19997;-70
2024/04/16 00:43:50;;;;;;;10.63;3.10;;;;;;;8.21;93.96;100061.44;5535469;25;20409;-70
2024/04/16 00:46:38;;;;;;;8.43;2.75;;;;;;;8.19;94.65;100063.59;5558915;25;20068;-70
2024/04/16 00:49:29;;;;;;;9.55;2.92;;;;;;;8.20;95.90;100065.22;5512167;25;20004;-71
2024/04/16 00:52:18;;;;;;;9.05;2.72;;;;;;;8.22;96.09;100044.06;5530018;25;20024;-70
2024/04/16 00:55:06;;;;;;;8.68;2.47;;;;;;;8.25;96.32;100040.78;5547846;25;20028;-70
2024/04/16 00:57:56;;;;;;;7.50;2.67;;;;;;;8.21;96.19;100037.81;5490709;25;20011;-71
2024/04/16 01:00:45;;;;;;;8.75;2.63;;;;;;;8.19;96.68;100031.84;5535582;25;20007;-73
2024/04/16 01:03:33;;;;;;;11.00;3.25;;;;;;;8.15;97.19;100029.94;5534658;25;20325;-69
2024/04/16 01:06:21;;;;;;;8.85;2.85;;;;;;;8.15;97.23;100029.94;5556783;25;20020;-71
2024/04/16 01:09:10;;;;;;;8.85;2.67;;;;;;;8.20;96.40;100033.50;5459004;25;20449;-70
2024/04/16 01:11:59;;;;;;;8.98;2.63;;;;;;;8.23;98.79;100013.13;5511366;25;20416;-72
2024/04/16 01:14:47;;;;;;;6.18;2.53;;;;;;;8.15;98.26;100008.25;5451565;25;20029;-71
2024/04/16 01:17:35;;;;;;;8.48;2.60;;;;;;;8.06;99.64;100003.38;5530193;25;20012;-70
2024/04/16 01:20:23;;;;;;;7.85;2.78;;;;;;;8.05;100.00;99998.22;5457539;25;20010;-70
2024/04/16 01:23:12;;;;;;;9.48;2.90;;;;;;;8.04;100.00;99996.59;5509856;25;20001;-70
2024/04/16 01:26:00;;;;;;;8.60;2.63;;;;;;;8.03;100.00;99989.53;5561665;25;20023;-70
2024/04/16 01:28:48;;;;;;;8.57;2.60;;;;;;;7.99;100.00;99997.41;5559054;25;20021;-70
2024/04/16 01:31:36;;;;;;;9.80;2.90;;;;;;;7.97;100.00;100023.97;5559507;25;19993;-70
2024/04/16 01:34:24;;;;;;;10.63;2.88;;;;;;;7.99;100.00;100021.81;5503376;25;20052;-69
2024/04/16 01:37:12;;;;;;;10.10;2.65;;;;;;;7.96;100.00;100011.53;5561454;25;20037;-69
2024/04/16 01:40:01;;;;;;;7.95;2.55;;;;;;;7.93;100.00;100006.59;5534681;25;20011;-69
2024/04/16 01:42:49;;;;;;;9.85;2.70;;;;;;;7.90;100.00;99996.31;5510670;25;20565;-69
2024/04/16 01:45:37;;;;;;;7.70;2.53;;;;;;;7.84;100.00;100013.66;5559423;25;20045;-70
2024/04/16 01:48:28;;;;;;;8.07;2.38;;;;;;;7.81;100.00;100015.00;5597759;25;20000;-69
2024/04/16 01:51:16;;;;;;;8.70;2.63;;;;;;;7.81;100.00;100035.88;5593353;25;20542;-70
2024/04/16 01:54:04;;;;;;;6.30;2.03;;;;;;;7.81;100.00;100030.47;5552340;25;19997;-70
2024/04/16 01:56:52;;;;;;;8.13;2.47;;;;;;;7.82;100.00;99996.84;5533355;25;20369;-70
2024/04/16 01:59:40;;;;;;;9.75;2.70;;;;;;;7.77;100.00;99975.13;5506772;25;20044;-70
2024/04/16 02:02:30;;;;;;;11.40;2.70;;;;;;;7.71;100.00;99984.38;5537638;25;19996;-69
2024/04/16 02:05:18;;;;;;;6.97;2.50;;;;;;;7.69;100.00;99981.91;5481668;25;20001;-69
2024/04/16 02:08:06;;;;;;;8.35;2.55;;;;;;;7.67;100.00;99970.50;5510748;25;20028;-70
2024/04/16 02:10:55;;;;;;;9.07;2.58;;;;;;;7.67;100.00;99976.78;5509083;25;20001;-69
2024/04/16 02:13:43;;;;;;;11.02;2.63;;;;;;;7.66;100.00;99975.13;5533756;25;20012;-70
2024/04/16 02:16:31;;;;;;;7.00;2.30;;;;;;;7.65;100.00;99973.50;5534263;25;20445;-69
2024/04/16 02:19:19;;;;;;;9.40;2.47;;;;;;;7.68;100.00;99967.53;5558137;25;20440;-71
2024/04/16 02:22:07;;;;;;;7.22;2.22;;;;;;;7.64;100.00;99977.28;5531180;25;20009;-69
2024/04/16 02:24:55;;;;;;;6.13;2.03;;;;;;;7.66;100.00;99966.19;5591835;25;19992;-69
2024/04/16 02:27:44;;;;;;;5.07;1.98;;;;;;;7.62;100.00;99957.78;5495818;26;20445;-70
2024/04/16 02:30:33;;;;;;;7.00;2.33;;;;;;;7.60;100.00;99953.69;5521915;26;20096;-69
2024/04/16 02:33:21;;;;;;;6.55;2.10;;;;;;;7.64;100.00;99943.94;5556605;25;20035;-70
2024/04/16 02:36:10;;;;;;;8.57;2.40;;;;;;;7.61;100.00;99949.91;5556440;25;20360;-69
2024/04/16 02:38:58;;;;;;;5.75;2.00;;;;;;;7.60;100.00;99959.97;5507039;25;20356;-69
2024/04/16 02:41:47;;;;;;;6.80;2.40;;;;;;;7.62;100.00;99957.78;5560569;25;20000;-69
2024/04/16 02:44:35;;;;;;;8.32;2.70;;;;;;;7.59;100.00;99958.31;5523933;25;20014;-69
2024/04/16 02:47:23;;;;;;;7.22;2.78;;;;;;;7.62;100.00;99971.31;5494071;25;19996;-69
2024/04/16 02:50:11;;;;;;;9.23;3.50;;;;;;;7.54;100.00;100017.13;5558108;25;19997;-69
2024/04/16 02:52:59;;;;;;;7.60;2.85;;;;;;;7.39;100.00;100023.34;5521140;26;20330;-69
2024/04/16 02:55:47;;;;;;;7.80;2.38;;;;;;;7.29;100.00;100026.00;5570938;25;20011;-69
2024/04/16 02:58:35;;;;;;;5.45;1.80;;;;;;;7.21;100.00;100008.34;5534060;25;20118;-69
2024/04/16 03:01:23;;;;;;;2.33;1.42;;;;;;;7.13;100.00;100008.88;5559777;25;20007;-69
2024/04/16 03:04:12;;;;;;;2.90;1.20;;;;;;;7.07;100.00;100005.34;5532612;25;20011;-70
2024/04/16 03:07:00;;;;;;;3.15;1.40;;;;;;;7.05;100.00;99988.53;5530651;25;20000;-69
2024/04/16 03:09:48;;;;;;;2.88;1.40;;;;;;;7.11;100.00;99983.94;5494934;26;20005;-69
2024/04/16 03:12:36;;;;;;;4.57;1.75;;;;;;;7.11;100.00;99984.75;5496540;26;19997;-68
2024/04/16 03:15:25;;;;;;;5.60;1.42;;;;;;;7.08;100.00;99985.31;5503916;25;19996;-68
2024/04/16 03:18:13;;;;;;;3.72;1.67;;;;;;;7.07;100.00;99988.25;5552894;25;20005;-68
2024/04/16 03:21:02;;;;;;;3.88;1.48;;;;;;;7.02;100.00;99970.09;5482155;25;20001;-69
2024/04/16 03:23:50;;;;;;;2.97;1.10;;;;;;;7.03;100.00;99969.03;5531828;25;20004;-69
2024/04/16 03:26:38;;;;;;;3.65;1.40;;;;;;;7.08;100.00;99950.09;5560660;25;20108;-69
2024/04/16 03:29:26;;;;;;;3.03;1.35;;;;;;;7.12;100.00;99942.22;5508816;25;20016;-69
2024/04/16 03:32:14;;;;;;;5.20;1.88;;;;;;;7.11;100.00;99952.25;5507956;25;20008;-68
2024/04/16 03:35:03;;;;;;;2.45;1.23;;;;;;;7.12;100.00;99947.66;5509285;25;20159;-69
2024/04/16 03:37:51;;;;;;;1.95;1.23;;;;;;;7.18;100.00;99941.97;5568002;25;20012;-70
2024/04/16 03:40:39;;;;;;;3.70;1.70;;;;;;;7.21;100.00;99929.78;5483767;25;19996;-69
2024/04/16 03:43:32;;;;;;;4.45;1.80;;;;;;;7.24;100.00;99929.28;5485287;25;20131;-68
2024/04/16 03:46:20;;;;;;;6.72;2.15;;;;;;;7.25;100.00;99920.88;5524351;25;19995;-69
2024/04/16 03:49:08;;;;;;;9.80;2.42;;;;;;;7.21;100.00;99917.06;5547463;25;20312;-70
2024/04/16 03:51:57;;;;;;;8.30;2.55;;;;;;;7.20;100.00;99904.59;5547009;25;20029;-68
2024/04/16 03:54:45;;;;;;;6.55;2.35;;;;;;;7.19;100.00;99905.69;5560381;25;20000;-69
2024/04/16 03:57:33;;;;;;;5.95;2.35;;;;;;;7.19;100.00;99911.13;5546162;25;20040;-69
2024/04/16 04:03:28;;;;;;;7.72;2.63;;;;;;;7.25;100.00;99896.47;5597798;25;20471;-69
2024/04/16 04:06:16;;;;;;;5.53;2.30;;;;;;;7.25;100.00;99882.94;5579203;25;20000;-68
2024/04/16 04:09:04;;;;;;;5.53;2.40;;;;;;;7.26;100.00;99878.31;5511922;25;20001;-69
2024/04/16 04:11:52;;;;;;;7.95;2.30;;;;;;;7.27;100.00;99857.47;5484122;25;20009;-69
2024/04/16 04:14:40;;;;;;;6.82;2.58;;;;;;;7.32;100.00;99857.47;5533285;25;20004;-69
2024/04/16 04:17:31;;;;;;;9.45;2.78;;;;;;;7.33;100.00;99861.81;5554592;25;20441;-69
2024/04/16 04:20:19;;;;;;;11.45;3.42;;;;;;;7.33;100.00;99859.09;5485195;25;20011;-69
2024/04/16 04:23:07;;;;;;;10.23;3.13;;;;;;;7.37;100.00;99862.91;5533890;25;20040;-69
2024/04/16 04:25:55;;;;;;;7.97;2.63;;;;;;;7.35;100.00;99854.22;5541009;25;20001;-69
2024/04/16 04:28:43;;;;;;;8.82;2.70;;;;;;;7.37;100.00;99846.66;5541053;25;20372;-68
2024/04/16 04:31:32;;;;;;;9.82;3.13;;;;;;;7.36;100.00;99839.56;5571081;25;20108;-69
2024/04/16 04:34:20;;;;;;;12.73;2.92;;;;;;;7.33;100.00;99834.72;5548231;25;20000;-69
2024/04/16 04:37:08;;;;;;;7.88;2.75;;;;;;;7.33;100.00;99848.25;5535330;25;20068;-69
2024/04/16 04:39:56;;;;;;;10.20;2.70;;;;;;;7.32;100.00;99846.66;5510366;25;20329;-69
2024/04/16 04:42:44;;;;;;;8.80;3.00;;;;;;;7.27;100.00;99835.81;5563902;25;20004;-70
2024/04/16 04:45:32;;;;;;;7.57;2.15;;;;;;;7.25;100.00;99828.75;5534831;25;20029;-69
2024/04/16 04:48:20;;;;;;;7.38;2.53;;;;;;;7.25;100.00;99833.34;5536493;25;20108;-69
2024/04/16 04:51:13;;;;;;;9.40;2.58;;;;;;;7.32;100.00;99833.09;5561288;25;20037;-69
2024/04/16 04:54:01;;;;;;;6.95;2.60;;;;;;;7.29;100.00;99836.31;5511816;25;19996;-68
2024/04/16 04:56:49;;;;;;;8.60;3.10;;;;;;;7.27;100.00;99830.38;5538923;25;20008;-68
2024/04/16 04:59:38;;;;;;;9.23;2.88;;;;;;;7.21;100.00;99813.28;5597784;25;20345;-69
2024/04/16 05:02:26;;;;;;;8.20;2.67;;;;;;;7.28;100.00;99815.75;5491785;25;20481;-69
2024/04/16 05:05:14;;;;;;;7.80;2.90;;;;;;;7.29;100.00;99817.34;5533369;25;19997;-69
2024/04/16 05:08:02;;;;;;;8.75;3.08;;;;;;;7.27;100.00;99800.59;5533911;25;20000;-69
2024/04/16 05:10:50;;;;;;;8.52;2.70;;;;;;;7.20;100.00;99798.94;5563864;25;20357;-69
2024/04/16 05:13:38;;;;;;;6.65;2.30;;;;;;;7.27;100.00;99797.88;5561146;25;20016;-69
2024/04/16 05:16:31;;;;;;;9.23;2.53;;;;;;;7.18;100.00;99792.19;5543516;25;19996;-69
2024/04/16 05:19:22;;;;;;;7.30;2.20;;;;;;;7.21;100.00;99781.59;4761669;25;10000743;-70
2024/04/16 05:22:11;;;;;;;4.80;2.22;;;;;;;7.14;100.00;99772.94;5555955;25;20004;-68
2024/04/16 05:24:59;;;;;;;5.43;2.10;;;;;;;7.15;100.00;99771.06;5558063;25;20448;-68
2024/04/16 05:27:47;;;;;;;4.95;2.03;;;;;;;7.14;100.00;99778.34;5526693;25;20084;-69
2024/04/16 05:30:35;;;;;;;4.68;1.98;;;;;;;7.08;100.00;99789.47;5543737;25;20001;-68
2024/04/16 05:33:27;;;;;;;5.72;1.63;;;;;;;7.00;100.00;99771.88;5563093;25;20049;-68
2024/04/16 05:36:17;;;;;;;7.65;2.22;;;;;;;6.98;100.00;99760.50;5520004;26;20001;-69
2024/04/16 05:39:59;;;;;;;5.80;2.17;;;;;;;6.95;100.00;99761.00;5548781;25;19997;-68
2024/04/16 05:42:50;;;;;;;5.53;1.98;;;;;;;7.11;100.00;99753.72;5531661;25;20437;-68
2024/04/16 05:45:38;;;;;;;4.07;1.92;;;;;;;7.00;100.00;99750.19;5507650;25;20001;-68
2024/04/16 05:48:27;;;;;;;5.95;1.60;;;;;;;6.95;100.00;99745.59;5511289;25;20000;-69
2024/04/16 05:51:16;;;;;;;3.30;1.40;;;;;;;6.93;100.00;99760.50;5494624;26;20005;-68
2024/04/16 05:54:06;;;;;;;4.68;1.98;;;;;;;7.01;100.00;99744.50;5546097;25;20013;-68
2024/04/16 05:56:55;;;;;;;4.70;1.23;;;;;;;6.97;100.00;99756.13;5496654;26;19994;-69
2024/04/16 05:59:43;;;;;;;5.22;1.45;;;;;;;6.93;100.00;99753.19;5526365;25;20028;-68
2024/04/16 06:02:32;;;;;;;6.93;1.75;;;;;;;7.08;100.00;99744.22;5504499;25;20004;-68
2024/04/16 06:05:21;;;;;;;8.75;2.50;;;;;;;7.04;100.00;99743.13;5551610;25;20675;-67
2024/04/16 06:08:09;;;;;;;10.32;3.28;;;;;;;7.12;100.00;99752.63;5510096;25;20001;-68
2024/04/16 06:10:57;;;;;;;6.97;1.80;;;;;;;6.88;100.00;99765.88;5502373;25;20004;-69
2024/04/16 06:13:46;;;;;;;5.03;1.73;;;;;;;6.70;100.00;99762.63;5518685;25;19993;-68
2024/04/16 06:16:35;;;;;;;8.57;2.42;;;;;;;6.68;100.00;99764.78;5481872;25;20000;-69
2024/04/16 06:19:23;;;;;;;9.65;2.60;;;;;;;6.71;100.00;99753.44;5450101;26;20008;-68
2024/04/16 06:22:12;;;;;;;10.70;2.72;;;;;;;6.74;100.00;99758.28;5524059;26;20337;-69
2024/04/16 06:25:00;;;;;;;8.40;2.45;;;;;;;6.88;100.00;99755.88;5525057;26;20046;-69
2024/04/16 06:27:51;;;;;;;11.00;2.65;;;;;;;6.96;100.00;99755.34;5562216;25;20004;-69
2024/04/16 06:30:39;;;;;;;10.30;3.67;;;;;;;6.98;100.00;99753.16;5562464;25;20075;-69
2024/04/16 06:33:28;;;;;;;8.85;2.42;;;;;;;7.03;100.00;99755.06;5562745;25;20029;-69
2024/04/16 06:36:17;;;;;;;12.20;2.88;;;;;;;7.06;100.00;99759.94;5511657;25;20397;-69
2024/04/16 06:39:06;;;;;;;10.27;3.05;;;;;;;7.11;100.00;99768.06;5534522;25;20001;-69
2024/04/16 06:41:57;;;;;;;13.88;3.45;;;;;;;7.08;100.00;99768.59;5488973;25;20297;-69
2024/04/16 06:44:45;;;;;;;12.38;3.33;;;;;;;7.10;100.00;99771.88;5536728;25;20012;-69
2024/04/16 06:47:33;;;;;;;11.40;3.33;;;;;;;7.16;100.00;99759.94;5490163;25;20459;-69
2024/04/16 06:50:22;;;;;;;9.98;3.28;;;;;;;7.16;100.00;99764.53;5536581;25;20003;-70
2024/04/16 06:53:10;;;;;;;14.05;3.58;;;;;;;7.20;100.00;99765.63;5558027;25;20333;-69
2024/04/16 06:55:59;;;;;;;19.08;4.10;;;;;;;7.28;100.00;99766.97;5483756;25;20001;-69
2024/04/16 06:58:47;;;;;;;15.25;4.10;;;;;;;7.38;100.00;99766.97;5524056;26;20049;-69
2024/04/16 07:01:36;;;;;;;13.70;3.80;;;;;;;7.45;100.00;99772.91;5473084;26;20029;-69
2024/04/16 07:04:24;;;;;;;15.90;3.70;;;;;;;7.50;100.00;99761.25;5496963;26;19998;-69
2024/04/16 07:07:12;;;;;;;15.80;3.78;;;;;;;7.53;100.00;99777.81;5536096;25;20075;-69
2024/04/16 07:10:01;;;;;;;14.05;3.25;;;;;;;7.58;100.00;99782.41;5571462;25;20377;-68
2024/04/16 07:12:49;;;;;;;15.88;3.95;;;;;;;7.64;100.00;99790.22;5574014;25;20324;-69
2024/04/16 07:15:38;;;;;;;15.70;3.65;;;;;;;7.68;100.00;99790.50;5574247;25;20000;-70
2024/04/16 07:18:26;;;;;;;14.05;3.50;;;;;;;7.74;100.00;99785.88;5598079;25;20056;-68
2024/04/16 07:21:14;;;;;;;18.23;4.07;;;;;;;7.78;100.00;99798.63;5600846;25;20006;-68
2024/04/16 07:24:04;;;;;;;15.82;3.80;;;;;;;7.81;100.00;99811.63;5599292;25;19996;-68
2024/04/16 07:26:53;;;;;;;16.20;3.53;;;;;;;7.83;100.00;99797.78;5571414;25;20008;-71
2024/04/16 07:29:41;;;;;;;12.20;3.38;;;;;;;7.81;100.00;99817.03;5562502;25;19996;-69
2024/04/16 07:32:29;;;;;;;15.52;4.00;;;;;;;7.81;100.00;99811.63;5562701;25;20033;-69
2024/04/16 07:35:18;;;;;;;13.13;3.00;;;;;;;7.83;100.00;99816.78;5560407;25;20076;-69
2024/04/16 07:38:06;;;;;;;15.30;4.18;;;;;;;7.83;100.00;99814.06;5543129;25;20003;-68
2024/04/16 07:40:55;;;;;;;14.32;3.47;;;;;;;7.81;100.00;99824.38;5600001;25;20000;-68
2024/04/16 07:43:43;;;;;;;15.00;4.05;;;;;;;7.81;100.00;99816.22;5545915;25;20472;-68
2024/04/16 07:46:34;;;;;;;15.30;3.53;;;;;;;7.80;100.00;99825.47;5570160;25;20015;-68
2024/04/16 07:49:23;;;;;;;10.63;3.35;;;;;;;7.78;100.00;99850.13;5487003;25;20028;-69
2024/04/16 07:52:11;;;;;;;18.55;3.90;;;;;;;7.75;100.00;99842.56;5538465;25;20344;-68
2024/04/16 07:54:59;;;;;;;12.43;3.88;;;;;;;7.77;100.00;99858.53;5537134;25;20000;-69
2024/04/16 07:57:48;;;;;;;12.48;3.28;;;;;;;7.73;100.00;99849.34;5513591;25;20007;-68
2024/04/16 08:00:37;;;;;;;17.05;4.00;;;;;;;7.77;100.00;99843.09;5535518;25;20517;-69
2024/04/16 08:03:25;;;;;;;16.15;3.72;;;;;;;7.84;100.00;99835.50;5535787;25;20013;-69
2024/04/16 08:06:13;;;;;;;11.95;3.42;;;;;;;7.88;100.00;99835.75;5509139;25;20440;-68
2024/04/16 08:09:01;;;;;;;13.38;3.60;;;;;;;7.92;100.00;99842.25;5474532;26;20069;-68
2024/04/16 08:11:49;;;;;;;11.65;2.97;;;;;;;7.96;100.00;99837.09;5474370;25;20001;-68
2024/04/16 08:14:38;;;;;;;11.07;3.47;;;;;;;7.96;100.00;99883.19;5513242;25;20003;-68
2024/04/16 08:17:26;;;;;;;9.30;3.03;;;;;;;7.96;100.00;99843.34;5508577;25;19996;-68
2024/04/16 08:20:15;;;;;;;15.30;3.30;;;;;;;8.00;100.00;99901.34;5484852;25;20013;-68
2024/04/16 08:23:04;;;;;;;11.82;3.35;;;;;;;8.05;100.00;99868.00;5510309;25;20037;-69
2024/04/16 08:26:02;;;;;;;11.80;3.40;;;;;;;8.13;100.00;99869.31;5561250;25;20064;-70
2024/04/16 08:28:56;;;;;;;11.63;3.15;;;;;;;8.24;100.00;99876.34;5452095;26;20001;-69
2024/04/16 08:31:44;;;;;;;13.45;3.75;;;;;;;8.34;100.00;99865.47;5499429;26;20001;-70
2024/04/16 08:34:38;;;;;;;13.15;3.70;;;;;;;8.39;100.00;99873.59;5497690;26;20004;-69
2024/04/16 08:37:30;;;;;;;17.83;3.95;;;;;;;8.42;100.00;99878.50;5541898;25;20346;-69
2024/04/16 08:40:19;;;;;;;13.77;3.75;;;;;;;8.45;100.00;99896.94;5562783;25;19996;-69
2024/04/16 08:43:07;;;;;;;13.15;4.20;;;;;;;8.51;100.00;99923.00;5509174;25;20524;-69
2024/04/16 08:45:56;;;;;;;14.20;4.03;;;;;;;8.57;100.00;99909.41;5458815;25;20380;-70
2024/04/16 08:48:44;;;;;;;12.65;3.55;;;;;;;8.62;100.00;99901.25;5566708;25;20012;-68
2024/04/16 08:51:34;;;;;;;12.32;3.80;;;;;;;8.67;100.00;99903.94;5506930;25;20008;-67
2024/04/16 08:54:24;;;;;;;14.73;4.00;;;;;;;8.67;100.00;99907.47;5508358;25;20000;-70
2024/04/16 08:57:12;;;;;;;15.63;4.30;;;;;;;8.66;100.00;99910.44;5509551;25;20329;-69
2024/04/16 09:00:00;;;;;;;13.40;4.18;;;;;;;8.61;100.00;99914.00;5499467;26;20009;-69
2024/04/16 09:02:52;;;;;;;14.05;3.70;;;;;;;8.58;100.00;99932.75;5498769;26;20013;-69
2024/04/16 09:05:41;;;;;;;17.50;4.32;;;;;;;8.57;100.00;99931.13;5549963;25;20022;-69
2024/04/16 09:08:29;;;;;;;15.00;4.22;;;;;;;8.56;100.00;99943.06;5534926;25;20453;-69
2024/04/16 09:11:17;;;;;;;15.85;3.78;;;;;;;8.57;100.00;99937.38;5533269;25;20011;-68
2024/04/16 09:14:06;;;;;;;15.70;3.78;;;;;;;8.57;100.00;99952.84;5511829;25;20019;-69
2024/04/16 09:16:54;;;;;;;16.25;3.75;;;;;;;8.57;100.00;99972.66;5528439;25;19996;-68
2024/04/16 09:19:42;;;;;;;14.98;3.70;;;;;;;8.52;100.00;99978.13;5535929;25;20020;-69
2024/04/16 09:22:31;;;;;;;16.95;4.05;;;;;;;8.49;100.00;99986.78;5561518;25;20143;-69
2024/04/16 09:25:20;;;;;;;19.30;3.97;;;;;;;8.39;100.00;100003.06;5536042;25;20332;-68
2024/04/16 09:28:08;;;;;;;12.57;3.13;;;;;;;8.28;100.00;100011.22;5510171;25;20012;-69
2024/04/16 09:30:57;;;;;;;12.55;3.20;;;;;;;8.18;100.00;100027.53;5513517;25;20343;-68
2024/04/16 09:33:45;;;;;;;17.00;3.92;;;;;;;8.19;100.00;100017.47;5545586;25;20072;-70
2024/04/16 09:36:34;;;;;;;13.07;3.67;;;;;;;8.21;100.00;100024.25;5561496;25;20527;-69
2024/04/16 09:39:23;;;;;;;8.63;3.00;;;;;;;8.17;100.00;100033.22;5510052;25;20001;-68
2024/04/16 09:42:11;;;;;;;8.32;2.50;;;;;;;8.16;100.00;100031.59;5537439;25;20454;-69
2024/04/16 09:45:01;;;;;;;6.95;2.67;;;;;;;8.11;100.00;100040.53;5536024;25;20012;-69
2024/04/16 09:47:50;;;;;;;9.73;2.78;;;;;;;8.08;100.00;100051.91;5536964;25;20510;-68
2024/04/16 09:50:39;;;;;;;10.60;3.20;;;;;;;8.08;100.00;100060.91;5499118;26;20005;-68
2024/04/16 09:53:43;;;;;;;9.80;2.85;;;;;;;8.13;100.00;100056.53;5480066;26;20012;-68
2024/04/16 09:56:33;;;;;;;14.50;3.50;;;;;;;8.15;100.00;100065.22;5508891;25;20012;-69
2024/04/16 09:59:23;;;;;;;9.82;2.90;;;;;;;8.18;100.00;100072.81;5581086;25;19996;-68
2024/04/16 10:02:12;;;;;;;11.02;3.40;;;;;;;8.24;100.00;100058.19;5545145;25;19997;-68
2024/04/16 10:05:01;;;;;;;12.48;3.28;;;;;;;8.30;100.00;100095.09;5483395;25;19997;-69
2024/04/16 10:07:49;;;;;;;11.43;3.30;;;;;;;8.35;100.00;100075.28;5544643;25;20007;-70
2024/04/16 10:10:37;;;;;;;12.35;3.17;;;;;;;8.43;100.00;100089.16;5531113;25;20072;-69
2024/04/16 10:13:29;;;;;;;12.85;3.03;;;;;;;8.47;100.00;100086.72;5527772;25;20008;-69
2024/04/16 10:16:18;;;;;;;8.82;2.80;;;;;;;8.52;100.00;100095.66;5506645;25;20000;-69
2024/04/16 10:19:06;;;;;;;9.98;2.85;;;;;;;8.55;100.00;100088.88;5503321;25;20357;-69
2024/04/16 10:22:01;;;;;;;11.23;2.78;;;;;;;8.56;100.00;100092.41;5569391;25;19992;-69
2024/04/16 10:24:53;;;;;;;10.68;3.38;;;;;;;8.59;100.00;100105.44;5544583;25;20020;-69
2024/04/16 10:27:41;;;;;;;13.32;3.33;;;;;;;8.62;100.00;100091.31;5541480;25;20011;-68
2024/04/16 10:30:31;;;;;;;14.40;3.45;;;;;;;8.66;100.00;100123.09;5176954;25;10001211;-68
2024/04/16 10:33:25;;;;;;;12.63;3.05;;;;;;;8.73;100.00;100117.38;5529107;25;19992;-68
2024/04/16 10:36:15;;;;;;;13.65;3.38;;;;;;;8.76;100.00;100121.47;5528839;25;20004;-69
2024/04/16 10:39:14;;;;;;;12.45;3.40;;;;;;;8.82;100.00;100117.63;5496368;25;20077;-69
2024/04/16 10:42:04;;;;;;;14.35;3.80;;;;;;;8.88;100.00;100124.69;5543730;25;20352;-69
2024/04/16 10:44:53;;;;;;;11.15;3.30;;;;;;;8.92;100.00;100114.91;5525783;25;20012;-69
2024/04/16 10:47:41;;;;;;;11.27;3.17;;;;;;;8.89;100.00;100127.13;5504234;25;20072;-70
2024/04/16 10:50:30;;;;;;;13.55;3.47;;;;;;;8.88;100.00;100130.94;5473464;26;19998;-70
2024/04/16 10:53:19;;;;;;;14.45;3.83;;;;;;;8.92;100.00;100131.19;5507557;25;20439;-69
2024/04/16 10:56:11;;;;;;;10.15;3.03;;;;;;;8.99;100.00;100137.16;5501846;25;20016;-69
2024/04/16 10:58:59;;;;;;;11.02;2.90;;;;;;;9.03;100.00;100132.00;5478930;25;20008;-68
2024/04/16 11:01:47;;;;;;;10.82;2.97;;;;;;;9.12;100.00;100135.81;5541059;25;20085;-69
2024/04/16 11:04:37;;;;;;;12.98;3.33;;;;;;;9.21;100.00;100142.28;5528436;25;19993;-68
2024/04/16 11:07:25;;;;;;;12.15;3.60;;;;;;;9.31;100.00;100150.44;5497391;26;20020;-68
2024/04/16 11:10:13;;;;;;;10.85;3.53;;;;;;;9.28;100.00;100150.97;5512950;25;20028;-68
2024/04/16 11:13:02;;;;;;;13.85;3.55;;;;;;;9.29;100.00;100163.47;5507446;25;20010;-68
2024/04/16 11:15:50;;;;;;;13.38;3.47;;;;;;;9.33;100.00;100156.41;5525843;25;20674;-70
2024/04/16 11:18:38;;;;;;;12.18;3.03;;;;;;;9.43;100.00;100163.72;5554632;25;20033;-69
2024/04/16 11:21:29;;;;;;;8.38;2.92;;;;;;;9.51;100.00;100159.63;5506725;25;20011;-70
2024/04/16 11:24:18;;;;;;;9.45;3.08;;;;;;;9.53;100.00;100158.25;5543917;25;20080;-69
2024/04/16 11:27:12;;;;;;;13.07;3.35;;;;;;;9.56;100.00;100167.75;5552911;25;20034;-69
2024/04/16 11:30:04;;;;;;;14.98;3.72;;;;;;;9.58;100.00;100171.00;5490435;26;20013;-69
2024/04/16 11:32:53;;;;;;;12.18;3.22;;;;;;;9.68;100.00;100170.97;5540582;25;20057;-69
2024/04/16 11:35:41;;;;;;;11.93;3.33;;;;;;;9.77;100.00;100179.38;5552779;25;20095;-69
2024/04/16 11:38:29;;;;;;;12.07;3.40;;;;;;;9.77;100.00;100184.81;5516849;25;20030;-69
2024/04/16 11:41:18;;;;;;;14.05;3.13;;;;;;;9.72;100.00;100179.41;5464784;26;20046;-69
2024/04/16 11:44:06;;;;;;;9.55;2.85;;;;;;;9.71;100.00;100200.31;5500262;25;20000;-69
2024/04/16 11:46:58;;;;;;;9.52;2.92;;;;;;;9.72;100.00;100191.09;5577414;25;20798;-69
2024/04/16 11:49:46;;;;;;;7.18;2.42;;;;;;;9.70;100.00;100206.88;5504809;25;20072;-69
2024/04/16 11:52:34;;;;;;;10.38;2.65;;;;;;;9.68;100.00;100219.94;5500548;25;20007;-69
2024/04/16 11:55:22;;;;;;;7.72;2.20;;;;;;;9.64;100.00;100213.41;5491510;26;20006;-68
2024/04/16 11:58:11;;;;;;;8.23;2.80;;;;;;;9.63;100.00;100219.94;5563569;25;20012;-68
2024/04/16 12:00:59;;;;;;;8.45;2.80;;;;;;;9.63;100.00;100203.63;5508073;25;20713;-69
2024/04/16 12:03:47;;;;;;;13.60;3.20;;;;;;;9.67;100.00;100221.03;5543160;25;20006;-69
2024/04/16 12:06:37;;;;;;;10.05;2.80;;;;;;;9.68;100.00;100225.38;5598888;25;20665;-69
2024/04/16 12:09:25;;;;;;;13.02;2.95;;;;;;;9.68;100.00;100236.25;5472150;26;20073;-69
2024/04/16 12:12:13;;;;;;;10.45;2.95;;;;;;;9.70;100.00;100234.06;5472920;26;20027;-68
2024/04/16 12:15:01;;;;;;;11.60;3.08;;;;;;;9.79;100.00;100243.31;5498228;25;20008;-68
2024/04/16 12:17:50;;;;;;;8.10;2.90;;;;;;;9.85;100.00;100251.44;5558906;25;20034;-68
2024/04/16 12:20:38;;;;;;;13.35;3.13;;;;;;;9.93;100.00;100248.13;5524188;26;20096;-68
2024/04/16 12:23:26;;;;;;;10.82;3.20;;;;;;;10.01;100.00;100239.41;5497837;26;19997;-68
2024/04/16 12:26:14;;;;;;;13.82;3.13;;;;;;;10.03;100.00;100256.28;5554033;25;20012;-69
2024/04/16 12:29:03;;;;;;;11.27;3.00;;;;;;;10.01;100.00;100272.88;5535409;25;20033;-69
2024/04/16 12:31:51;;;;;;;7.20;2.50;;;;;;;9.79;100.00;100284.09;5563363;25;20427;-69
2024/04/16 12:34:39;;;;;;;6.53;2.20;;;;;;;9.61;100.00;100276.53;5510037;25;20008;-69
2024/04/16 12:37:28;;;;;;;8.07;2.05;;;;;;;9.46;100.00;100276.56;5510734;25;20496;-69
2024/04/16 12:40:17;;;;;;;7.30;2.15;;;;;;;9.38;100.00;100281.47;5460871;25;19997;-68
2024/04/16 12:43:05;;;;;;;9.52;2.70;;;;;;;9.39;100.00;100276.84;5566497;25;20516;-69
2024/04/16 12:46:00;;;;;;;9.07;2.55;;;;;;;9.44;100.00;100290.41;5535766;25;20419;-69
2024/04/16 12:48:50;;;;;;;6.82;2.28;;;;;;;9.51;100.00;100290.16;5540027;25;20285;-70
2024/04/16 12:51:38;;;;;;;8.02;2.25;;;;;;;9.54;100.00;100295.03;5505669;26;20025;-69
2024/04/16 12:54:26;;;;;;;6.80;2.75;;;;;;;9.56;100.00;100301.00;5535421;25;20478;-69
2024/04/16 12:57:14;;;;;;;6.82;2.10;;;;;;;9.54;100.00;100295.03;5537845;25;20007;-69
2024/04/16 13:00:03;;;;;;;8.13;2.90;;;;;;;9.56;100.00;100304.53;5525285;25;20468;-69
2024/04/16 13:02:51;;;;;;;9.15;2.35;;;;;;;9.55;100.00;100307.56;5506570;25;20001;-69
2024/04/16 13:05:42;;;;;;;6.78;2.17;;;;;;;9.49;100.00;100320.31;5535210;25;20004;-68
2024/04/16 13:08:30;;;;;;;8.35;2.28;;;;;;;9.46;100.00;100320.06;5508964;25;20441;-68
2024/04/16 13:11:18;;;;;;;8.82;2.78;;;;;;;9.49;100.00;100314.88;5458568;25;20484;-69